createdAt,value
2023-02-19T00:01:46.982Z,101640.78
2023-02-19T00:04:21.561Z,101640.66
2023-02-19T00:06:48.957Z,101630.19
2023-02-19T00:09:18.189Z,101639.47
2023-02-19T00:11:46.500Z,101635.09
2023-02-19T00:14:19.770Z,101650.44
2023-02-19T00:16:47.717Z,101642.94
2023-02-19T00:19:17.069Z,101644.09
2023-02-19T00:21:45.212Z,101647.50
2023-02-19T00:24:13.674Z,101648.09
2023-02-19T00:26:41.672Z,101641.75
2023-02-19T00:29:12.999Z,101654.69
2023-02-19T00:31:40.463Z,101643.22
2023-02-19T00:34:09.544Z,101640.75
2023-02-19T00:36:38.996Z,101647.94
2023-02-19T00:39:08.364Z,101647.47
2023-02-19T00:41:35.425Z,101658.22
2023-02-19T00:44:05.929Z,101660.38
2023-02-19T00:46:36.800Z,101659.72
2023-02-19T00:49:04.851Z,101643.22
2023-02-19T00:51:35.375Z,101657.75
2023-02-19T00:54:03.771Z,101655.44
2023-02-19T00:56:30.522Z,101665.25
2023-02-19T00:58:58.755Z,101675.22
2023-02-19T01:01:26.089Z,101671.28
2023-02-19T01:03:52.856Z,101674.72
2023-02-19T01:06:21.266Z,101670.31
2023-02-19T01:08:48.238Z,101668.00
2023-02-19T01:11:17.210Z,101658.34
2023-02-19T01:13:44.429Z,101674.88
2023-02-19T01:16:23.877Z,101687.94
2023-02-19T01:18:51.622Z,101668.50
2023-02-19T01:21:21.747Z,101671.44
2023-02-19T01:23:55.117Z,101687.25
2023-02-19T01:26:25.395Z,101681.41
2023-02-19T01:28:52.426Z,101668.78
2023-02-19T01:31:23.774Z,101685.50
2023-02-19T01:33:54.167Z,101688.28
2023-02-19T01:36:21.500Z,101691.53
2023-02-19T01:38:48.679Z,101676.97
2023-02-19T01:41:23.932Z,101692.19
2023-02-19T01:43:58.848Z,101696.72
2023-02-19T01:46:27.649Z,101684.97
2023-02-19T01:48:56.578Z,101690.72
2023-02-19T01:51:23.459Z,101692.81
2023-02-19T01:53:56.489Z,101691.03
2023-02-19T01:56:26.479Z,101678.75
2023-02-19T01:58:54.660Z,101681.53
2023-02-19T02:01:21.795Z,101683.66
2023-02-19T02:03:52.554Z,101682.34
2023-02-19T02:06:24.502Z,101679.38
2023-02-19T02:09:13.577Z,101689.84
2023-02-19T02:11:46.235Z,101688.19
2023-02-19T02:14:14.633Z,101678.50
2023-02-19T02:16:53.757Z,101685.91
2023-02-19T02:19:46.202Z,101694.06
2023-02-19T02:22:16.219Z,101695.03
2023-02-19T02:25:11.262Z,101692.25
2023-02-19T02:27:45.550Z,101695.03
2023-02-19T02:30:30.433Z,101695.31
2023-02-19T02:33:34.597Z,101699.41
2023-02-19T02:36:21.827Z,101699.53
2023-02-19T02:38:49.663Z,101696.22
2023-02-19T02:41:21.267Z,101695.06
2023-02-19T02:43:48.569Z,101700.06
2023-02-19T02:46:21.896Z,101703.28
2023-02-19T02:49:04.573Z,101707.19
2023-02-19T02:51:44.099Z,101702.63
2023-02-19T02:54:40.401Z,101708.31
2023-02-19T02:57:15.676Z,101712.25
2023-02-19T02:59:52.867Z,101706.66
2023-02-19T03:02:26.251Z,101703.09
2023-02-19T03:05:23.325Z,101710.59
2023-02-19T03:08:04.926Z,101716.34
2023-02-19T03:10:44.712Z,101717.34
2023-02-19T03:13:35.284Z,101724.22
2023-02-19T03:16:26.918Z,101709.47
2023-02-19T03:19:18.214Z,101729.75
2023-02-19T03:21:59.214Z,101727.50
2023-02-19T03:24:55.172Z,101728.00
2023-02-19T03:27:25.231Z,101728.16
2023-02-19T03:29:59.048Z,101729.16
2023-02-19T03:32:34.120Z,101724.59
2023-02-19T03:35:11.269Z,101722.94
2023-02-19T03:37:44.648Z,101727.81
2023-02-19T03:40:12.305Z,101736.00
2023-02-19T03:42:59.291Z,101735.03
2023-02-19T03:45:51.130Z,101733.69
2023-02-19T03:48:26.551Z,101738.94
2023-02-19T03:51:06.269Z,101736.50
2023-02-19T03:53:59.018Z,101746.44
2023-02-19T03:56:46.063Z,101756.06
2023-02-19T03:59:40.037Z,101751.31
2023-02-19T04:02:13.181Z,101750.03
2023-02-19T04:04:45.816Z,101762.44
2023-02-19T04:07:13.317Z,101764.50
2023-02-19T04:09:44.500Z,101767.25
2023-02-19T04:12:17.409Z,101765.72
2023-02-19T04:14:52.938Z,101774.19
2023-02-19T04:17:34.114Z,101787.56
2023-02-19T04:20:05.731Z,101780.38
2023-02-19T04:22:34.006Z,101781.66
2023-02-19T04:25:00.934Z,101788.66
2023-02-19T04:27:27.894Z,101789.41
2023-02-19T04:29:54.552Z,101792.28
2023-02-19T04:32:21.711Z,101798.34
2023-02-19T04:34:48.378Z,101798.94
2023-02-19T04:37:15.136Z,101791.69
2023-02-19T04:39:41.815Z,101805.59
2023-02-19T04:42:10.697Z,101811.47
2023-02-19T04:44:37.561Z,101812.72
2023-02-19T04:47:04.422Z,101819.38
2023-02-19T04:49:31.219Z,101811.72
2023-02-19T04:51:57.992Z,101819.47
2023-02-19T04:54:27.229Z,101816.97
2023-02-19T04:56:54.093Z,101819.97
2023-02-19T04:59:20.812Z,101837.13
2023-02-19T05:01:47.749Z,101836.75
2023-02-19T05:04:14.597Z,101844.94
2023-02-19T05:06:41.259Z,101846.28
2023-02-19T05:09:08.866Z,101858.22
2023-02-19T05:11:35.644Z,101856.41
2023-02-19T05:14:02.291Z,101859.06
2023-02-19T05:16:29.355Z,101859.72
2023-02-19T05:18:56.005Z,101852.13
2023-02-19T05:21:22.873Z,101868.44
2023-02-19T05:23:49.534Z,101872.00
2023-02-19T05:26:20.499Z,101862.44
2023-02-19T05:28:49.677Z,101872.88
2023-02-19T05:31:18.336Z,101871.91
2023-02-19T05:33:48.178Z,101862.88
2023-02-19T05:36:15.125Z,101880.84
2023-02-19T05:38:42.474Z,101872.78
2023-02-19T05:41:14.586Z,101868.81
2023-02-19T05:43:43.675Z,101881.94
2023-02-19T05:46:12.148Z,101890.06
2023-02-19T05:48:39.175Z,101886.50
2023-02-19T05:51:12.289Z,101885.66
2023-02-19T05:53:39.939Z,101891.44
2023-02-19T05:56:21.325Z,101892.47
2023-02-19T05:58:48.239Z,101901.69
2023-02-19T06:01:17.538Z,101894.13
2023-02-19T06:03:44.258Z,101893.00
2023-02-19T06:06:14.121Z,101892.22
2023-02-19T06:08:40.863Z,101880.84
2023-02-19T06:11:10.392Z,101881.16
2023-02-19T06:13:37.399Z,101886.66
2023-02-19T06:16:05.578Z,101891.91
2023-02-19T06:18:32.628Z,101898.66
2023-02-19T06:21:08.467Z,101903.53
2023-02-19T06:23:35.399Z,101910.94
2023-02-19T06:26:20.443Z,101913.72
2023-02-19T06:28:51.455Z,101912.38
2023-02-19T06:31:20.011Z,101920.84
2023-02-19T06:33:47.100Z,101928.50
2023-02-19T06:36:18.034Z,101930.72
2023-02-19T06:38:45.298Z,101930.47
2023-02-19T06:41:13.359Z,101932.22
2023-02-19T06:43:40.787Z,101939.38
2023-02-19T06:46:08.220Z,101937.44
2023-02-19T06:48:35.891Z,101944.31
2023-02-19T06:51:03.640Z,101944.31
2023-02-19T06:53:33.341Z,101942.00
2023-02-19T06:56:05.524Z,101938.59
2023-02-19T06:58:33.077Z,101952.19
2023-02-19T07:01:00.108Z,101960.69
2023-02-19T07:03:26.977Z,101952.06
2023-02-19T07:05:54.082Z,101950.31
2023-02-19T07:08:21.286Z,101954.00
2023-02-19T07:10:56.460Z,101973.63
2023-02-19T07:13:25.130Z,101956.22
2023-02-19T07:15:59.762Z,101980.78
2023-02-19T07:18:29.224Z,101981.75
2023-02-19T07:20:56.065Z,101979.69
2023-02-19T07:23:22.736Z,101991.06
2023-02-19T07:25:49.414Z,101994.69
2023-02-19T07:28:16.883Z,102005.38
2023-02-19T07:30:43.802Z,101997.97
2023-02-19T07:33:11.326Z,101999.22
2023-02-19T07:35:38.132Z,102001.72
2023-02-19T07:38:04.958Z,102015.81
2023-02-19T07:40:31.633Z,102026.25
2023-02-19T07:42:59.681Z,102026.41
2023-02-19T07:45:26.746Z,102034.06
2023-02-19T07:47:53.456Z,102044.91
2023-02-19T07:50:20.284Z,102033.81
2023-02-19T07:52:47.050Z,102046.13
2023-02-19T07:55:13.926Z,102060.38
2023-02-19T07:57:40.694Z,102064.50
2023-02-19T08:00:07.969Z,102057.63
2023-02-19T08:02:57.844Z,102073.56
2023-02-19T08:05:24.540Z,102078.63
2023-02-19T08:07:51.805Z,102077.13
2023-02-19T08:10:38.892Z,102087.56
2023-02-19T08:13:25.298Z,102080.25
2023-02-19T08:16:15.668Z,102081.38
2023-02-19T08:18:44.470Z,102088.38
2023-02-19T08:21:12.121Z,102094.25
2023-02-19T08:23:39.871Z,102101.78
2023-02-19T08:26:07.540Z,102094.66
2023-02-19T08:28:34.504Z,102113.75
2023-02-19T08:31:03.112Z,102101.53
2023-02-19T08:33:30.765Z,102113.22
2023-02-19T08:36:01.212Z,102107.75
2023-02-19T08:38:28.009Z,102112.53
2023-02-19T08:40:56.090Z,102105.09
2023-02-19T08:43:23.697Z,102102.03
2023-02-19T08:45:53.315Z,102106.44
2023-02-19T08:48:20.600Z,102097.81
2023-02-19T08:50:57.305Z,102108.25
2023-02-19T08:53:25.612Z,102104.34
2023-02-19T08:55:52.902Z,102108.75
2023-02-19T08:58:19.853Z,102119.47
2023-02-19T09:00:50.494Z,102120.56
2023-02-19T09:03:17.489Z,102114.53
2023-02-19T09:05:46.870Z,102128.78
2023-02-19T09:08:13.879Z,102125.91
2023-02-19T09:10:40.580Z,102129.03
2023-02-19T09:13:09.753Z,102127.22
2023-02-19T09:15:39.135Z,102133.06
2023-02-19T09:18:05.893Z,102128.19
2023-02-19T09:20:32.633Z,102136.78
2023-02-19T09:22:59.706Z,102139.91
2023-02-19T09:25:26.527Z,102132.19
2023-02-19T09:27:56.993Z,102127.72
2023-02-19T09:30:27.079Z,102120.34
2023-02-19T09:32:54.040Z,102126.47
2023-02-19T09:35:20.865Z,102143.13
2023-02-19T09:37:47.709Z,102150.22
2023-02-19T09:40:14.799Z,102155.09
2023-02-19T09:42:43.558Z,102152.88
2023-02-19T09:45:19.849Z,102146.00
2023-02-19T09:47:47.463Z,102167.22
2023-02-19T09:50:20.457Z,102168.63
2023-02-19T09:52:57.068Z,102170.69
2023-02-19T09:55:39.794Z,102170.25
2023-02-19T09:58:30.748Z,102173.38
2023-02-19T10:01:00.425Z,102178.47
2023-02-19T10:03:35.439Z,102189.06
2023-02-19T10:06:09.440Z,102188.19
2023-02-19T10:08:41.350Z,102194.38
2023-02-19T10:11:13.532Z,102195.84
2023-02-19T10:13:53.566Z,102199.53
2023-02-19T10:16:27.322Z,102207.91
2023-02-19T10:18:54.201Z,102217.53
2023-02-19T10:21:25.292Z,102225.72
2023-02-19T10:23:56.000Z,102233.41
2023-02-19T10:26:23.982Z,102236.41
2023-02-19T10:28:50.645Z,102239.44
2023-02-19T10:31:24.305Z,102248.34
2023-02-19T10:33:56.187Z,102249.72
2023-02-19T10:36:40.081Z,102265.63
2023-02-19T10:39:22.089Z,102266.19
2023-02-19T10:41:50.749Z,102265.34
2023-02-19T10:44:23.688Z,102263.44
2023-02-19T10:46:57.205Z,102272.91
2023-02-19T10:49:31.240Z,102265.31
2023-02-19T10:52:03.003Z,102282.97
2023-02-19T10:54:32.816Z,102284.81
2023-02-19T10:57:16.209Z,102277.84
2023-02-19T10:59:54.503Z,102276.31
2023-02-19T11:02:21.945Z,102276.59
2023-02-19T11:05:07.306Z,102270.28
2023-02-19T11:07:36.487Z,102273.63
2023-02-19T11:10:07.175Z,102269.19
2023-02-19T11:12:35.169Z,102281.25
2023-02-19T11:15:21.568Z,102264.69
2023-02-19T11:17:56.981Z,102270.94
2023-02-19T11:20:24.144Z,102258.25
2023-02-19T11:22:52.129Z,102274.75
2023-02-19T11:25:25.896Z,102271.84
2023-02-19T11:28:13.428Z,102274.38
2023-02-19T11:30:42.680Z,102266.13
2023-02-19T11:33:25.724Z,102259.34
2023-02-19T11:36:00.732Z,102260.31
2023-02-19T11:38:27.970Z,102262.16
2023-02-19T11:41:33.260Z,102264.22
2023-02-19T11:44:32.365Z,102255.50
2023-02-19T11:47:02.243Z,102260.69
2023-02-19T11:50:03.268Z,102257.63
2023-02-19T11:52:30.101Z,102254.38
2023-02-19T11:55:21.496Z,102261.28
2023-02-19T11:58:04.618Z,102266.59
2023-02-19T12:00:35.544Z,102257.38
2023-02-19T12:03:26.011Z,102248.69
2023-02-19T12:06:04.778Z,102255.00
2023-02-19T12:08:59.486Z,102243.66
2023-02-19T12:11:55.470Z,102243.97
2023-02-19T12:14:43.840Z,102252.56
2023-02-19T12:17:52.096Z,102246.28
2023-02-19T12:20:51.708Z,102240.75
2023-02-19T12:23:44.232Z,102248.59
2023-02-19T12:26:32.541Z,102245.09
2023-02-19T12:29:25.400Z,102251.56
2023-02-19T12:32:15.313Z,102258.91
2023-02-19T12:34:42.255Z,102264.53
2023-02-19T12:37:31.870Z,102262.94
2023-02-19T12:40:17.741Z,102250.47
2023-02-19T12:43:03.786Z,102266.00
2023-02-19T12:45:46.683Z,102250.88
2023-02-19T12:48:24.911Z,102252.41
2023-02-19T12:50:59.900Z,102268.47
2023-02-19T12:53:45.906Z,102271.41
2023-02-19T12:57:00.755Z,102270.69
2023-02-19T12:59:27.356Z,102282.03
2023-02-19T13:02:23.429Z,102282.53
2023-02-19T13:05:02.811Z,102283.47
2023-02-19T13:07:39.321Z,102287.25
2023-02-19T13:10:31.149Z,102305.34
2023-02-19T13:13:06.399Z,102307.06
2023-02-19T13:15:38.764Z,102316.03
2023-02-19T13:18:18.826Z,102315.22
2023-02-19T13:20:51.727Z,102328.56
2023-02-19T13:23:52.386Z,102336.50
2023-02-19T13:26:31.344Z,102337.34
2023-02-19T13:29:35.494Z,102327.44
2023-02-19T13:32:39.602Z,102333.91
2023-02-19T13:35:31.443Z,102336.06
2023-02-19T13:38:02.281Z,102314.91
2023-02-19T13:40:35.862Z,102319.44
2023-02-19T13:43:04.556Z,102341.00
2023-02-19T13:45:40.487Z,102343.53
2023-02-19T13:48:25.254Z,102355.78
2023-02-19T13:51:18.703Z,102355.53
2023-02-19T13:53:45.825Z,102364.56
2023-02-19T13:56:37.030Z,102367.59
2023-02-19T13:59:39.158Z,102371.19
2023-02-19T14:02:15.867Z,102356.34
2023-02-19T14:04:52.555Z,102365.00
2023-02-19T14:07:19.418Z,102361.44
2023-02-19T14:09:58.962Z,102362.38
2023-02-19T14:12:35.212Z,102373.91
2023-02-19T14:15:23.661Z,102375.63
2023-02-19T14:17:50.980Z,102372.81
2023-02-19T14:20:17.769Z,102374.47
2023-02-19T14:22:51.674Z,102372.00
2023-02-19T14:25:30.449Z,102369.53
2023-02-19T14:28:17.658Z,102360.50
2023-02-19T14:30:58.768Z,102371.50
2023-02-19T14:33:31.798Z,102361.88
2023-02-19T14:36:06.129Z,102372.16
2023-02-19T14:38:39.194Z,102367.09
2023-02-19T14:41:11.003Z,102369.81
2023-02-19T14:43:38.988Z,102373.25
2023-02-19T14:46:29.374Z,102377.94
2023-02-19T14:49:02.928Z,102363.47
2023-02-19T14:51:42.289Z,102368.16
2023-02-19T14:54:41.077Z,102367.19
2023-02-19T14:57:21.128Z,102363.38
2023-02-19T15:00:00.350Z,102360.22
2023-02-19T15:02:30.009Z,102353.03
2023-02-19T15:04:57.867Z,102359.66
2023-02-19T15:07:30.114Z,102360.78
2023-02-19T15:10:05.069Z,102358.31
2023-02-19T15:12:47.032Z,102356.06
2023-02-19T15:15:25.049Z,102361.94
2023-02-19T15:17:54.959Z,102359.25
2023-02-19T15:20:28.452Z,102353.22
2023-02-19T15:22:57.301Z,102339.50
2023-02-19T15:25:30.626Z,102347.06
2023-02-19T15:28:19.822Z,102340.47
2023-02-19T15:30:46.843Z,102337.53
2023-02-19T15:33:19.211Z,102330.63
2023-02-19T15:35:57.410Z,102353.84
2023-02-19T15:38:29.688Z,102361.53
2023-02-19T15:40:58.530Z,102349.94
2023-02-19T15:43:45.368Z,102367.25
2023-02-19T15:46:20.442Z,102391.56
2023-02-19T15:48:59.222Z,102398.94
2023-02-19T15:51:53.464Z,102400.47
2023-02-19T15:54:30.758Z,102410.03
2023-02-19T15:57:10.347Z,102406.44
2023-02-19T15:59:53.153Z,102397.00
2023-02-19T16:02:23.090Z,102396.84
2023-02-19T16:04:50.443Z,102404.47
2023-02-19T16:07:28.953Z,102391.72
2023-02-19T16:10:27.032Z,102403.72
2023-02-19T16:13:02.393Z,102397.38
2023-02-19T16:15:31.454Z,102397.84
2023-02-19T16:18:01.813Z,102392.72
2023-02-19T16:20:35.082Z,102427.75
2023-02-19T16:23:15.469Z,102416.50
2023-02-19T16:25:46.055Z,102416.06
2023-02-19T16:28:24.138Z,102438.22
2023-02-19T16:31:04.436Z,102445.09
2023-02-19T16:33:39.483Z,102441.56
2023-02-19T16:36:38.662Z,102442.81
2023-02-19T16:39:08.538Z,102444.41
2023-02-19T16:41:51.311Z,102453.16
2023-02-19T16:44:39.013Z,102448.25
2023-02-19T16:47:25.309Z,102434.91
2023-02-19T16:49:59.566Z,102444.13
2023-02-19T16:52:29.582Z,102464.41
2023-02-19T16:54:56.963Z,102464.00
2023-02-19T16:57:29.815Z,102456.06
2023-02-19T16:59:57.537Z,102452.06
2023-02-19T17:02:26.736Z,102468.81
2023-02-19T17:04:56.288Z,102449.00
2023-02-19T17:07:23.464Z,102439.22
2023-02-19T17:09:50.163Z,102467.94
2023-02-19T17:12:18.143Z,102440.78
2023-02-19T17:14:45.294Z,102462.53
2023-02-19T17:17:14.155Z,102462.06
2023-02-19T17:19:40.918Z,102461.94
2023-02-19T17:22:09.066Z,102465.47
2023-02-19T17:24:35.947Z,102466.53
2023-02-19T17:27:02.729Z,102471.28
2023-02-19T17:29:33.811Z,102470.78
2023-02-19T17:32:04.231Z,102469.72
2023-02-19T17:34:41.393Z,102478.47
2023-02-19T17:37:09.546Z,102482.75
2023-02-19T17:39:38.305Z,102492.53
2023-02-19T17:42:06.105Z,102477.91
2023-02-19T17:44:32.956Z,102486.75
2023-02-19T17:46:59.842Z,102488.50
2023-02-19T17:49:26.662Z,102492.50
2023-02-19T17:51:54.106Z,102497.44
2023-02-19T17:54:20.998Z,102494.69
2023-02-19T17:56:47.916Z,102501.19
2023-02-19T17:59:15.615Z,102522.41
2023-02-19T18:01:46.110Z,102514.13
2023-02-19T18:04:14.530Z,102516.97
2023-02-19T18:06:42.936Z,102518.94
2023-02-19T18:09:11.456Z,102521.28
2023-02-19T18:11:39.409Z,102511.44
2023-02-19T18:14:06.365Z,102515.72
2023-02-19T18:16:33.434Z,102513.50
2023-02-19T18:19:02.231Z,102514.44
2023-02-19T18:21:30.597Z,102511.22
2023-02-19T18:23:57.355Z,102498.19
2023-02-19T18:26:25.146Z,102506.50
2023-02-19T18:28:55.373Z,102502.47
2023-02-19T18:31:22.167Z,102508.09
2023-02-19T18:33:49.022Z,102501.56
2023-02-19T18:36:16.358Z,102505.72
2023-02-19T18:38:46.658Z,102505.91
2023-02-19T18:41:14.656Z,102498.00
2023-02-19T18:43:42.231Z,102505.72
2023-02-19T18:46:10.105Z,102508.09
2023-02-19T18:48:37.279Z,102506.91
2023-02-19T18:51:04.481Z,102502.16
2023-02-19T18:53:31.488Z,102502.16
2023-02-19T18:55:59.716Z,102503.94
2023-02-19T18:58:28.445Z,102508.00
2023-02-19T19:00:55.118Z,102510.59
2023-02-19T19:03:21.893Z,102517.41
2023-02-19T19:05:50.520Z,102512.66
2023-02-19T19:08:17.243Z,102512.13
2023-02-19T19:10:44.252Z,102509.25
2023-02-19T19:13:10.928Z,102500.69
2023-02-19T19:15:39.667Z,102498.28
2023-02-19T19:18:06.402Z,102485.75
2023-02-19T19:20:33.596Z,102491.38
2023-02-19T19:23:00.595Z,102511.38
2023-02-19T19:25:27.645Z,102499.78
2023-02-19T19:27:57.472Z,102499.03
2023-02-19T19:30:24.375Z,102500.69
2023-02-19T19:32:52.615Z,102507.34
2023-02-19T19:35:20.948Z,102509.94
2023-02-19T19:37:47.803Z,102519.59
2023-02-19T19:40:17.444Z,102519.59
2023-02-19T19:42:44.684Z,102509.94
2023-02-19T19:45:12.528Z,102515.34
2023-02-19T19:47:39.316Z,102515.84
2023-02-19T19:50:06.562Z,102514.28
2023-02-19T19:52:33.523Z,102526.63
2023-02-19T19:55:00.824Z,102518.97
2023-02-19T19:57:27.560Z,102525.19
2023-02-19T19:59:54.277Z,102526.84
2023-02-19T20:02:21.035Z,102524.88
2023-02-19T20:04:47.792Z,102518.97
2023-02-19T20:07:14.446Z,102516.47
2023-02-19T20:09:41.728Z,102515.03
2023-02-19T20:12:09.373Z,102510.13
2023-02-19T20:14:36.112Z,102511.28
2023-02-19T20:17:02.856Z,102519.91
2023-02-19T20:19:29.798Z,102512.03
2023-02-19T20:21:56.781Z,102524.25
2023-02-19T20:24:31.246Z,102521.25
2023-02-19T20:27:00.206Z,102528.09
2023-02-19T20:29:29.025Z,102532.44
2023-02-19T20:31:59.815Z,102528.81
2023-02-19T20:34:27.540Z,102521.88
2023-02-19T20:36:54.766Z,102526.84
2023-02-19T20:39:23.012Z,102518.44
2023-02-19T20:41:51.556Z,102516.06
2023-02-19T20:44:19.337Z,102511.69
2023-02-19T20:46:49.027Z,102508.09
2023-02-19T20:49:17.769Z,102503.41
2023-02-19T20:51:52.167Z,102500.72
2023-02-19T20:54:20.412Z,102499.38
2023-02-19T20:56:49.009Z,102495.94
2023-02-19T20:59:17.552Z,102501.59
2023-02-19T21:01:44.441Z,102502.44
2023-02-19T21:04:11.241Z,102500.47
2023-02-19T21:06:38.607Z,102508.41
2023-02-19T21:09:05.863Z,102500.84
2023-02-19T21:11:33.362Z,102506.56
2023-02-19T21:14:00.149Z,102504.19
2023-02-19T21:16:28.395Z,102500.97
2023-02-19T21:18:55.815Z,102500.22
2023-02-19T21:21:25.380Z,102497.34
2023-02-19T21:23:53.335Z,102500.84
2023-02-19T21:26:20.704Z,102496.53
2023-02-19T21:28:47.392Z,102497.75
2023-02-19T21:31:14.251Z,102491.75
2023-02-19T21:33:41.286Z,102494.84
2023-02-19T21:36:10.670Z,102490.59
2023-02-19T21:38:38.302Z,102484.16
2023-02-19T21:41:05.272Z,102470.94
2023-02-19T21:43:32.115Z,102467.91
2023-02-19T21:45:58.771Z,102458.69
2023-02-19T21:48:25.971Z,102461.91
2023-02-19T21:50:52.846Z,102459.31
2023-02-19T21:53:19.523Z,102466.88
2023-02-19T21:55:57.817Z,102461.91
2023-02-19T21:58:24.829Z,102476.00
2023-02-19T22:00:53.683Z,102474.03
2023-02-19T22:03:20.857Z,102476.22
2023-02-19T22:05:48.954Z,102470.81
2023-02-19T22:08:17.464Z,102474.03
2023-02-19T22:10:44.300Z,102477.16
2023-02-19T22:13:11.494Z,102480.47
2023-02-19T22:15:38.982Z,102484.94
2023-02-19T22:18:08.236Z,102481.81
2023-02-19T22:20:37.618Z,102476.53
2023-02-19T22:23:04.512Z,102472.28
2023-02-19T22:25:31.070Z,102464.91
2023-02-19T22:27:59.468Z,102469.06
2023-02-19T22:30:27.316Z,102466.34
2023-02-19T22:32:54.147Z,102472.81
2023-02-19T22:35:21.085Z,102474.38
2023-02-19T22:37:47.914Z,102477.88
2023-02-19T22:40:14.569Z,102469.63
2023-02-19T22:42:41.760Z,102474.69
2023-02-19T22:45:11.216Z,102463.41
2023-02-19T22:47:40.009Z,102463.00
2023-02-19T22:50:09.010Z,102465.06
2023-02-19T22:52:35.722Z,102465.88
2023-02-19T22:55:07.649Z,102470.84
2023-02-19T22:57:35.060Z,102468.78
2023-02-19T23:00:02.482Z,102459.44
2023-02-19T23:02:29.254Z,102467.34
2023-02-19T23:04:55.878Z,102448.16
2023-02-19T23:07:23.602Z,102457.78
2023-02-19T23:09:50.303Z,102456.97
2023-02-19T23:12:17.181Z,102460.88
2023-02-19T23:14:43.771Z,102447.56
2023-02-19T23:17:13.209Z,102439.72
2023-02-19T23:19:39.828Z,102442.19
2023-02-19T23:22:09.278Z,102436.16
2023-02-19T23:24:39.984Z,102421.69
2023-02-19T23:27:08.076Z,102418.66
2023-02-19T23:29:34.745Z,102410.88
2023-02-19T23:32:01.466Z,102413.16
2023-02-19T23:34:28.383Z,102410.19
2023-02-19T23:36:55.498Z,102411.97
2023-02-19T23:39:23.052Z,102411.66
2023-02-19T23:41:52.833Z,102404.09
2023-02-19T23:44:21.460Z,102399.13
2023-02-19T23:46:49.796Z,102397.47
2023-02-19T23:49:17.702Z,102408.34
2023-02-19T23:51:45.007Z,102407.03
2023-02-19T23:54:12.477Z,102400.78
2023-02-19T23:56:39.182Z,102414.94
2023-02-19T23:59:06.061Z,102409.44
